Dauphin Airport, Manitoba

Past 24 Hour Conditions

Date / Time
(CDT)
Conditions Temp
(°F)
Humidity
(%)
Dew Point
(°F)
Wind
(mph)
Pressure
(inches)
Visibility
(miles)
25 October 2014
12:00 Sunny 50 47 31 W 24 gust 32 30.0 10
11:00 Sunny 47 55 31 WNW 23 gust 30 30.0 10
10:00 Sunny 42 62 30 W 20 30.0 10
9:00 Sunny 38 71 30 W 15 30.0 10
8:00 Clear 37   72 29 W 11 30.0 10
7:00 Clear 37   74 30 W 11 30.0 10
6:00 Clear 40 69 30 W 13 30.0 10
5:00 Clear 39 72 30 W 13 29.9 10
4:00 Clear 41 65 31 WSW 11 29.9 10
3:00 Clear 41 67 31 WSW 14 29.9 10
2:00 Clear 43 62 31 W 18 gust 24 29.9 10
1:00 Clear 44 60 31 W 17 29.9 10
00:00 Clear 45 59 31 WSW 16 29.9 10
24 October 2014
23:00 Clear 46 58 32 W 20 29.9 10
22:00 Clear 47 58 33 W 18 29.8 10
21:00 Clear 50 49 32 WNW 23 gust 31 29.8 10
20:00 Partly Cloudy 50 52 33 W 17 gust 24 29.8 10
19:00 Clear 53 44 32 WNW 24 gust 36 29.7 10
18:00 Sunny 56 39 32 WNW 17 gust 34 29.7 10
17:00 Sunny 60 35 32 WNW 34 gust 51 29.6 10
16:00 Sunny 62 33 32 WNW 30 gust 45 29.6 10
15:00 Mainly Sunny 60 43 38 WNW 22 gust 33 29.6 10
14:00 Sunny 60 43 38 WNW 33 gust 47 29.6 10
13:00 Sunny 62 40 38 W 29 gust 44 29.6 10
12:00 Sunny 64   40 39 W 26 gust 38 29.6 10
N/A Not available
↑ Highest temperature
↓ Lowest temperature

If you require additional historical weather information, please visit Climate Data Online.

Date modified: